sensor_id;sensor_type;location;lat;lon;timestamp;pressure;altitude;pressure_sealevel;temperature;humidity
17311;BME280;8773;43.300;0.394;2023-07-22T00:01:04;100010.59;;;19.21;nan
17311;BME280;8773;43.300;0.394;2023-07-22T00:03:32;100012.88;;;19.18;nan
17311;BME280;8773;43.300;0.394;2023-07-22T00:06:03;100001.41;;;19.09;nan
17311;BME280;8773;43.300;0.394;2023-07-22T00:08:33;100005.19;;;19.28;nan
17311;BME280;8773;43.300;0.394;2023-07-22T00:11:01;100007.94;;;19.41;nan
17311;BME280;8773;43.300;0.394;2023-07-22T00:13:30;100010.19;;;19.24;nan
17311;BME280;8773;43.300;0.394;2023-07-22T00:15:58;100012.47;;;19.27;nan
17311;BME280;8773;43.300;0.394;2023-07-22T00:18:27;100012.66;;;19.13;nan
17311;BME280;8773;43.300;0.394;2023-07-22T00:20:55;100006.78;;;18.89;nan
17311;BME280;8773;43.300;0.394;2023-07-22T00:23:23;100009.03;;;18.92;nan
17311;BME280;8773;43.300;0.394;2023-07-22T00:25:52;100007.19;;;18.86;nan
17311;BME280;8773;43.300;0.394;2023-07-22T00:28:19;100004.66;;;18.91;nan
17311;BME280;8773;43.300;0.394;2023-07-22T00:30:47;100003.44;;;18.94;nan
17311;BME280;8773;43.300;0.394;2023-07-22T00:33:15;100007.19;;;18.99;nan
17311;BME280;8773;43.300;0.394;2023-07-22T00:35:43;100004.97;;;19.23;nan
17311;BME280;8773;43.300;0.394;2023-07-22T00:38:14;100015.41;;;19.26;nan
17311;BME280;8773;43.300;0.394;2023-07-22T00:40:42;100009.97;;;19.26;nan
17311;BME280;8773;43.300;0.394;2023-07-22T00:43:11;100013.47;;;19.07;nan
17311;BME280;8773;43.300;0.394;2023-07-22T00:45:39;100008.94;;;19.27;nan
17311;BME280;8773;43.300;0.394;2023-07-22T00:48:07;100019.38;;;19.37;nan
17311;BME280;8773;43.300;0.394;2023-07-22T00:50:36;100007.72;;;19.43;nan
17311;BME280;8773;43.300;0.394;2023-07-22T00:53:07;100012.75;;;19.52;nan
17311;BME280;8773;43.300;0.394;2023-07-22T00:55:35;100014.44;;;19.73;nan
17311;BME280;8773;43.300;0.394;2023-07-22T00:58:03;100010.44;;;19.89;nan
17311;BME280;8773;43.300;0.394;2023-07-22T01:00:32;100005.44;;;19.92;nan
17311;BME280;8773;43.300;0.394;2023-07-22T01:03:00;100009.81;;;19.87;nan
17311;BME280;8773;43.300;0.394;2023-07-22T01:05:28;100004.59;;;19.79;nan
17311;BME280;8773;43.300;0.394;2023-07-22T01:07:59;99995.44;;;19.86;nan
17311;BME280;8773;43.300;0.394;2023-07-22T01:10:26;99987.75;;;19.63;nan
17311;BME280;8773;43.300;0.394;2023-07-22T01:12:55;99986.88;;;19.30;nan
17311;BME280;8773;43.300;0.394;2023-07-22T01:15:23;99994.19;;;19.43;nan
17311;BME280;8773;43.300;0.394;2023-07-22T01:17:53;99988.16;;;19.41;nan
17311;BME280;8773;43.300;0.394;2023-07-22T01:20:21;99984.81;;;19.39;nan
17311;BME280;8773;43.300;0.394;2023-07-22T01:22:51;99982.94;;;19.39;nan
17311;BME280;8773;43.300;0.394;2023-07-22T01:25:19;99976.06;;;19.56;nan
17311;BME280;8773;43.300;0.394;2023-07-22T01:27:47;99980.66;;;19.62;nan
17311;BME280;8773;43.300;0.394;2023-07-22T01:30:15;99977.94;;;19.62;nan
17311;BME280;8773;43.300;0.394;2023-07-22T01:32:43;99972.75;;;19.74;nan
17311;BME280;8773;43.300;0.394;2023-07-22T01:35:11;99970.63;;;19.96;nan
17311;BME280;8773;43.300;0.394;2023-07-22T01:37:38;99971.66;;;19.95;nan
17311;BME280;8773;43.300;0.394;2023-07-22T01:40:09;99974.41;;;19.68;nan
17311;BME280;8773;43.300;0.394;2023-07-22T01:42:37;99978.16;;;19.67;nan
17311;BME280;8773;43.300;0.394;2023-07-22T01:45:06;99978.16;;;19.61;nan
17311;BME280;8773;43.300;0.394;2023-07-22T01:47:34;99973.78;;;19.53;nan
17311;BME280;8773;43.300;0.394;2023-07-22T01:50:02;99977.72;;;19.77;nan
17311;BME280;8773;43.300;0.394;2023-07-22T01:52:30;99982.31;;;19.77;nan
17311;BME280;8773;43.300;0.394;2023-07-22T01:54:58;99978.38;;;19.66;nan
17311;BME280;8773;43.300;0.394;2023-07-22T01:57:27;99977.94;;;19.43;nan
17311;BME280;8773;43.300;0.394;2023-07-22T01:59:55;99983.13;;;19.38;nan
17311;BME280;8773;43.300;0.394;2023-07-22T02:02:23;99980.03;;;19.54;nan
17311;BME280;8773;43.300;0.394;2023-07-22T02:04:50;99977.31;;;19.54;nan
17311;BME280;8773;43.300;0.394;2023-07-22T02:07:18;99976.09;;;19.63;nan
17311;BME280;8773;43.300;0.394;2023-07-22T02:09:46;99973.97;;;19.78;nan
17311;BME280;8773;43.300;0.394;2023-07-22T02:12:13;99964.41;;;19.76;nan
17311;BME280;8773;43.300;0.394;2023-07-22T02:14:42;99967.72;;;19.78;nan
17311;BME280;8773;43.300;0.394;2023-07-22T02:17:10;99971.50;;;19.70;nan
17311;BME280;8773;43.300;0.394;2023-07-22T02:19:38;99966.91;;;19.57;nan
17311;BME280;8773;43.300;0.394;2023-07-22T02:22:05;99967.94;;;19.63;nan
17311;BME280;8773;43.300;0.394;2023-07-22T02:24:33;99966.06;;;19.50;nan
17311;BME280;8773;43.300;0.394;2023-07-22T02:27:01;99960.41;;;19.19;nan
17311;BME280;8773;43.300;0.394;2023-07-22T02:29:29;99962.31;;;19.38;nan
17311;BME280;8773;43.300;0.394;2023-07-22T02:31:58;99966.91;;;19.31;nan
17311;BME280;8773;43.300;0.394;2023-07-22T02:34:25;99970.34;;;18.98;nan
17311;BME280;8773;43.300;0.394;2023-07-22T02:36:53;99968.25;;;18.87;nan
17311;BME280;8773;43.300;0.394;2023-07-22T02:39:21;99969.84;;;18.62;nan
17311;BME280;8773;43.300;0.394;2023-07-22T02:41:48;99974.09;;;18.84;nan
17311;BME280;8773;43.300;0.394;2023-07-22T02:44:16;99969.28;;;18.80;nan
17311;BME280;8773;43.300;0.394;2023-07-22T02:46:44;99969.72;;;18.83;nan
17311;BME280;8773;43.300;0.394;2023-07-22T02:49:13;99964.72;;;18.87;nan
17311;BME280;8773;43.300;0.394;2023-07-22T02:51:41;99955.91;;;18.65;nan
17311;BME280;8773;43.300;0.394;2023-07-22T02:54:08;99972.94;;;18.59;nan
17311;BME280;8773;43.300;0.394;2023-07-22T02:56:36;99977.06;;;18.48;nan
17311;BME280;8773;43.300;0.394;2023-07-22T02:59:07;99968.06;;;18.41;nan
17311;BME280;8773;43.300;0.394;2023-07-22T03:01:34;99970.88;;;18.61;nan
17311;BME280;8773;43.300;0.394;2023-07-22T03:04:02;99973.81;;;18.66;nan
17311;BME280;8773;43.300;0.394;2023-07-22T03:06:31;99971.72;;;18.68;nan
17311;BME280;8773;43.300;0.394;2023-07-22T03:08:59;99982.25;;;18.50;nan
17311;BME280;8773;43.300;0.394;2023-07-22T03:11:27;99975.25;;;18.62;nan
17311;BME280;8773;43.300;0.394;2023-07-22T03:13:54;99982.94;;;18.65;nan
17311;BME280;8773;43.300;0.394;2023-07-22T03:16:22;99988.69;;;18.49;nan
17311;BME280;8773;43.300;0.394;2023-07-22T03:18:50;99982.50;;;18.55;nan
17311;BME280;8773;43.300;0.394;2023-07-22T03:21:17;99981.28;;;18.64;nan
17311;BME280;8773;43.300;0.394;2023-07-22T03:23:46;99980.06;;;18.66;nan
17311;BME280;8773;43.300;0.394;2023-07-22T03:26:14;99992.97;;;18.71;nan
17311;BME280;8773;43.300;0.394;2023-07-22T03:28:44;99976.56;;;18.79;nan
17311;BME280;8773;43.300;0.394;2023-07-22T03:31:12;99978.88;;;18.95;nan
17311;BME280;8773;43.300;0.394;2023-07-22T03:33:40;99981.34;;;18.90;nan
17311;BME280;8773;43.300;0.394;2023-07-22T03:36:07;99976.78;;;18.91;nan
17311;BME280;8773;43.300;0.394;2023-07-22T03:38:35;99979.72;;;19.02;nan
17311;BME280;8773;43.300;0.394;2023-07-22T03:41:04;99985.09;;;18.76;nan
17311;BME280;8773;43.300;0.394;2023-07-22T03:43:32;99989.19;;;18.65;nan
17311;BME280;8773;43.300;0.394;2023-07-22T03:46:00;99997.28;;;18.59;nan
17311;BME280;8773;43.300;0.394;2023-07-22T03:48:28;99993.09;;;18.56;nan
17311;BME280;8773;43.300;0.394;2023-07-22T03:50:55;99997.63;;;18.43;nan
17311;BME280;8773;43.300;0.394;2023-07-22T03:53:35;100001.41;;;18.55;nan
17311;BME280;8773;43.300;0.394;2023-07-22T03:56:04;100000.00;;;18.59;nan
17311;BME280;8773;43.300;0.394;2023-07-22T03:58:32;99985.03;;;18.63;nan
17311;BME280;8773;43.300;0.394;2023-07-22T04:00:59;99999.50;;;18.49;nan
17311;BME280;8773;43.300;0.394;2023-07-22T04:03:27;100003.56;;;18.66;nan
17311;BME280;8773;43.300;0.394;2023-07-22T04:05:55;100000.72;;;18.81;nan
17311;BME280;8773;43.300;0.394;2023-07-22T04:08:23;99997.81;;;18.82;nan
17311;BME280;8773;43.300;0.394;2023-07-22T04:10:52;100002.19;;;18.83;nan
17311;BME280;8773;43.300;0.394;2023-07-22T04:13:22;99997.63;;;18.97;nan
17311;BME280;8773;43.300;0.394;2023-07-22T04:15:50;99994.00;;;18.70;nan
17311;BME280;8773;43.300;0.394;2023-07-22T04:18:19;99997.25;;;18.52;nan
17311;BME280;8773;43.300;0.394;2023-07-22T04:20:47;99995.50;;;18.79;nan
17311;BME280;8773;43.300;0.394;2023-07-22T04:23:15;100000.44;;;18.69;nan
17311;BME280;8773;43.300;0.394;2023-07-22T04:25:44;100001.66;;;18.60;nan
17311;BME280;8773;43.300;0.394;2023-07-22T04:28:11;100005.56;;;18.51;nan
17311;BME280;8773;43.300;0.394;2023-07-22T04:30:40;100004.69;;;18.44;nan
17311;BME280;8773;43.300;0.394;2023-07-22T04:33:08;100006.41;;;18.51;nan
17311;BME280;8773;43.300;0.394;2023-07-22T04:35:37;100009.78;;;18.60;nan
17311;BME280;8773;43.300;0.394;2023-07-22T04:38:05;100002.91;;;18.64;nan
17311;BME280;8773;43.300;0.394;2023-07-22T04:40:33;100006.66;;;18.63;nan
17311;BME280;8773;43.300;0.394;2023-07-22T04:43:00;100005.31;;;18.46;nan
17311;BME280;8773;43.300;0.394;2023-07-22T04:45:28;99999.91;;;18.46;nan
17311;BME280;8773;43.300;0.394;2023-07-22T04:47:57;100010.41;;;18.62;nan
17311;BME280;8773;43.300;0.394;2023-07-22T04:50:25;100002.53;;;18.67;nan
17311;BME280;8773;43.300;0.394;2023-07-22T04:52:54;100007.69;;;18.62;nan
17311;BME280;8773;43.300;0.394;2023-07-22T04:55:22;99999.84;;;18.32;nan
17311;BME280;8773;43.300;0.394;2023-07-22T04:57:50;100002.47;;;18.54;nan
17311;BME280;8773;43.300;0.394;2023-07-22T05:00:17;99991.25;;;18.57;nan
17311;BME280;8773;43.300;0.394;2023-07-22T05:02:46;99991.53;;;18.75;nan
17311;BME280;8773;43.300;0.394;2023-07-22T05:05:16;99993.13;;;18.63;nan
17311;BME280;8773;43.300;0.394;2023-07-22T05:07:43;99996.31;;;18.73;nan
17311;BME280;8773;43.300;0.394;2023-07-22T05:10:14;99998.41;;;18.78;nan
17311;BME280;8773;43.300;0.394;2023-07-22T05:12:42;99998.66;;;18.89;nan
17311;BME280;8773;43.300;0.394;2023-07-22T05:15:10;99983.22;;;18.77;nan
17311;BME280;8773;43.300;0.394;2023-07-22T05:17:39;99988.88;;;18.95;nan
17311;BME280;8773;43.300;0.394;2023-07-22T05:20:07;99991.13;;;18.78;nan
17311;BME280;8773;43.300;0.394;2023-07-22T05:22:37;99988.94;;;19.15;nan
17311;BME280;8773;43.300;0.394;2023-07-22T05:25:06;99988.03;;;18.94;nan
17311;BME280;8773;43.300;0.394;2023-07-22T05:27:34;99991.69;;;18.67;nan
17311;BME280;8773;43.300;0.394;2023-07-22T05:30:02;99994.47;;;18.93;nan
17311;BME280;8773;43.300;0.394;2023-07-22T05:32:29;99996.19;;;19.08;nan
17311;BME280;8773;43.300;0.394;2023-07-22T05:35:00;99990.00;;;19.40;nan
17311;BME280;8773;43.300;0.394;2023-07-22T05:37:28;99985.66;;;19.52;nan
17311;BME280;8773;43.300;0.394;2023-07-22T05:39:57;99986.28;;;19.67;nan
17311;BME280;8773;43.300;0.394;2023-07-22T05:42:25;99988.56;;;19.84;nan
17311;BME280;8773;43.300;0.394;2023-07-22T05:44:54;99983.53;;;20.00;nan
17311;BME280;8773;43.300;0.394;2023-07-22T05:47:22;99988.16;;;19.67;nan
17311;BME280;8773;43.300;0.394;2023-07-22T05:49:49;99982.34;;;19.70;nan
17311;BME280;8773;43.300;0.394;2023-07-22T05:52:17;99989.81;;;19.48;nan
17311;BME280;8773;43.300;0.394;2023-07-22T05:54:45;99991.25;;;19.84;nan
17311;BME280;8773;43.300;0.394;2023-07-22T05:57:14;99993.97;;;19.38;nan
17311;BME280;8773;43.300;0.394;2023-07-22T05:59:41;99986.25;;;19.81;nan
17311;BME280;8773;43.300;0.394;2023-07-22T06:02:11;99988.34;;;20.12;nan
17311;BME280;8773;43.300;0.394;2023-07-22T06:04:42;99995.16;;;20.27;nan
17311;BME280;8773;43.300;0.394;2023-07-22T06:07:10;99986.25;;;20.00;nan
17311;BME280;8773;43.300;0.394;2023-07-22T06:09:38;99979.41;;;21.07;nan
17311;BME280;8773;43.300;0.394;2023-07-22T06:12:06;99981.00;;;21.96;nan
17311;BME280;8773;43.300;0.394;2023-07-22T06:14:35;99983.25;;;22.79;nan
17311;BME280;8773;43.300;0.394;2023-07-22T06:17:03;99989.59;;;23.33;nan
17311;BME280;8773;43.300;0.394;2023-07-22T06:19:31;99977.78;;;23.50;nan
17311;BME280;8773;43.300;0.394;2023-07-22T06:21:58;99980.16;;;23.70;nan
17311;BME280;8773;43.300;0.394;2023-07-22T06:24:26;99980.78;;;23.60;nan
17311;BME280;8773;43.300;0.394;2023-07-22T06:26:54;99991.03;;;23.35;nan
17311;BME280;8773;43.300;0.394;2023-07-22T06:29:22;99991.88;;;23.47;nan
17311;BME280;8773;43.300;0.394;2023-07-22T06:31:51;99990.16;;;23.65;nan
17311;BME280;8773;43.300;0.394;2023-07-22T06:34:18;99981.38;;;24.33;nan
17311;BME280;8773;43.300;0.394;2023-07-22T06:36:47;99971.28;;;24.45;nan
17311;BME280;8773;43.300;0.394;2023-07-22T06:39:15;99978.75;;;24.26;nan
17311;BME280;8773;43.300;0.394;2023-07-22T06:41:42;99984.81;;;24.28;nan
17311;BME280;8773;43.300;0.394;2023-07-22T06:44:13;99980.66;;;24.37;nan
17311;BME280;8773;43.300;0.394;2023-07-22T06:46:41;99983.16;;;24.39;nan
17311;BME280;8773;43.300;0.394;2023-07-22T06:49:10;99984.13;;;23.86;nan
17311;BME280;8773;43.300;0.394;2023-07-22T06:51:37;99985.44;;;24.07;nan
17311;BME280;8773;43.300;0.394;2023-07-22T06:54:06;99985.06;;;24.26;nan
17311;BME280;8773;43.300;0.394;2023-07-22T06:56:33;99973.53;;;24.24;nan
17311;BME280;8773;43.300;0.394;2023-07-22T06:59:01;99978.84;;;23.49;nan
17311;BME280;8773;43.300;0.394;2023-07-22T07:01:29;99984.94;;;23.10;nan
17311;BME280;8773;43.300;0.394;2023-07-22T07:03:56;99984.16;;;23.03;nan
17311;BME280;8773;43.300;0.394;2023-07-22T07:06:29;99976.53;;;23.88;nan
17311;BME280;8773;43.300;0.394;2023-07-22T07:08:59;99982.69;;;24.30;nan
17311;BME280;8773;43.300;0.394;2023-07-22T07:13:55;99990.34;;;25.70;nan
17311;BME280;8773;43.300;0.394;2023-07-22T07:16:24;99983.31;;;25.29;nan
17311;BME280;8773;43.300;0.394;2023-07-22T07:18:53;99999.91;;;24.42;nan
17311;BME280;8773;43.300;0.394;2023-07-22T07:21:21;100004.03;;;24.33;nan
17311;BME280;8773;43.300;0.394;2023-07-22T07:23:51;99993.25;;;25.18;nan
17311;BME280;8773;43.300;0.394;2023-07-22T07:26:19;99999.56;;;25.52;nan
17311;BME280;8773;43.300;0.394;2023-07-22T07:28:50;99998.03;;;25.90;nan
17311;BME280;8773;43.300;0.394;2023-07-22T07:31:18;99990.84;;;26.22;nan
17311;BME280;8773;43.300;0.394;2023-07-22T07:33:46;99999.09;;;26.27;nan
17311;BME280;8773;43.300;0.394;2023-07-22T07:36:13;100001.75;;;26.01;nan
17311;BME280;8773;43.300;0.394;2023-07-22T07:38:41;99996.44;;;25.94;nan
17311;BME280;8773;43.300;0.394;2023-07-22T07:41:10;99998.19;;;25.67;nan
17311;BME280;8773;43.300;0.394;2023-07-22T07:43:39;99999.63;;;24.96;nan
17311;BME280;8773;43.300;0.394;2023-07-22T07:46:12;100000.16;;;24.81;nan
17311;BME280;8773;43.300;0.394;2023-07-22T07:48:40;100005.16;;;24.72;nan
17311;BME280;8773;43.300;0.394;2023-07-22T07:51:08;100007.69;;;25.31;nan
17311;BME280;8773;43.300;0.394;2023-07-22T07:53:35;100001.19;;;25.82;nan
17311;BME280;8773;43.300;0.394;2023-07-22T07:56:03;100002.22;;;25.47;nan
17311;BME280;8773;43.300;0.394;2023-07-22T07:58:33;99994.75;;;25.26;nan
17311;BME280;8773;43.300;0.394;2023-07-22T08:01:00;100002.16;;;25.14;nan
17311;BME280;8773;43.300;0.394;2023-07-22T08:03:28;100005.34;;;24.94;nan
17311;BME280;8773;43.300;0.394;2023-07-22T08:05:59;100009.72;;;24.95;nan
17311;BME280;8773;43.300;0.394;2023-07-22T08:08:27;100006.53;;;25.60;nan
17311;BME280;8773;43.300;0.394;2023-07-22T08:10:58;100003.44;;;26.62;nan
17311;BME280;8773;43.300;0.394;2023-07-22T08:13:26;100004.03;;;27.40;nan
17311;BME280;8773;43.300;0.394;2023-07-22T08:15:56;100008.94;;;27.06;nan
17311;BME280;8773;43.300;0.394;2023-07-22T08:18:24;100001.22;;;27.03;nan
17311;BME280;8773;43.300;0.394;2023-07-22T08:20:52;99996.53;;;27.89;nan
17311;BME280;8773;43.300;0.394;2023-07-22T08:23:20;99994.41;;;28.48;nan
17311;BME280;8773;43.300;0.394;2023-07-22T08:25:47;99998.47;;;27.94;nan
17311;BME280;8773;43.300;0.394;2023-07-22T08:28:15;100012.38;;;27.23;nan
17311;BME280;8773;43.300;0.394;2023-07-22T08:30:44;100007.91;;;27.12;nan
17311;BME280;8773;43.300;0.394;2023-07-22T08:33:13;100000.22;;;27.14;nan
17311;BME280;8773;43.300;0.394;2023-07-22T08:35:46;100005.97;;;26.90;nan
17311;BME280;8773;43.300;0.394;2023-07-22T08:38:14;100001.44;;;26.36;nan
17311;BME280;8773;43.300;0.394;2023-07-22T08:40:41;99999.31;;;26.21;nan
17311;BME280;8773;43.300;0.394;2023-07-22T08:43:10;100003.88;;;26.15;nan
17311;BME280;8773;43.300;0.394;2023-07-22T08:45:39;99994.63;;;25.83;nan
17311;BME280;8773;43.300;0.394;2023-07-22T08:48:08;100004.41;;;24.88;nan
17311;BME280;8773;43.300;0.394;2023-07-22T08:50:42;100006.53;;;24.86;nan
17311;BME280;8773;43.300;0.394;2023-07-22T08:53:12;99996.44;;;24.87;nan
17311;BME280;8773;43.300;0.394;2023-07-22T08:55:41;100008.38;;;24.98;nan
17311;BME280;8773;43.300;0.394;2023-07-22T08:58:09;99998.50;;;24.05;nan
17311;BME280;8773;43.300;0.394;2023-07-22T09:00:40;100004.63;;;24.23;nan
17311;BME280;8773;43.300;0.394;2023-07-22T09:03:08;100006.69;;;24.80;nan
17311;BME280;8773;43.300;0.394;2023-07-22T09:05:38;100007.13;;;23.90;nan
17311;BME280;8773;43.300;0.394;2023-07-22T09:08:07;100009.56;;;23.68;nan
17311;BME280;8773;43.300;0.394;2023-07-22T09:10:35;100008.91;;;24.31;nan
17311;BME280;8773;43.300;0.394;2023-07-22T09:13:04;100018.00;;;24.60;nan
17311;BME280;8773;43.300;0.394;2023-07-22T09:15:35;100013.78;;;24.41;nan
17311;BME280;8773;43.300;0.394;2023-07-22T09:18:03;100007.94;;;24.14;nan
17311;BME280;8773;43.300;0.394;2023-07-22T09:20:31;100018.09;;;23.72;nan
17311;BME280;8773;43.300;0.394;2023-07-22T09:23:00;100021.50;;;22.47;nan
17311;BME280;8773;43.300;0.394;2023-07-22T09:25:42;100026.69;;;23.34;nan
17311;BME280;8773;43.300;0.394;2023-07-22T09:28:10;100017.56;;;23.93;nan
17311;BME280;8773;43.300;0.394;2023-07-22T09:30:39;100015.91;;;24.39;nan
17311;BME280;8773;43.300;0.394;2023-07-22T09:33:19;100013.84;;;24.98;nan
17311;BME280;8773;43.300;0.394;2023-07-22T09:35:48;100015.59;;;24.75;nan
17311;BME280;8773;43.300;0.394;2023-07-22T09:38:24;100018.31;;;23.47;nan
17311;BME280;8773;43.300;0.394;2023-07-22T09:40:52;100022.44;;;22.89;nan
17311;BME280;8773;43.300;0.394;2023-07-22T09:43:23;100029.97;;;22.76;nan
17311;BME280;8773;43.300;0.394;2023-07-22T09:45:51;100023.72;;;23.77;nan
17311;BME280;8773;43.300;0.394;2023-07-22T09:48:21;100015.19;;;23.85;nan
17311;BME280;8773;43.300;0.394;2023-07-22T09:50:56;100010.34;;;24.45;nan
17311;BME280;8773;43.300;0.394;2023-07-22T09:53:25;100010.56;;;24.20;nan
17311;BME280;8773;43.300;0.394;2023-07-22T09:55:53;100005.63;;;24.69;nan
17311;BME280;8773;43.300;0.394;2023-07-22T09:58:21;100005.53;;;25.49;nan
17311;BME280;8773;43.300;0.394;2023-07-22T10:00:51;100003.72;;;26.05;nan
17311;BME280;8773;43.300;0.394;2023-07-22T10:03:19;100008.34;;;26.21;nan
17311;BME280;8773;43.300;0.394;2023-07-22T10:05:50;100014.19;;;25.91;nan
17311;BME280;8773;43.300;0.394;2023-07-22T10:08:18;100011.53;;;25.63;nan
17311;BME280;8773;43.300;0.394;2023-07-22T10:10:51;100006.41;;;26.39;nan
17311;BME280;8773;43.300;0.394;2023-07-22T10:13:21;100012.03;;;26.10;nan
17311;BME280;8773;43.300;0.394;2023-07-22T10:15:49;100012.19;;;25.87;nan
17311;BME280;8773;43.300;0.394;2023-07-22T10:18:17;100009.72;;;26.41;nan
17311;BME280;8773;43.300;0.394;2023-07-22T10:20:45;100005.13;;;25.57;nan
17311;BME280;8773;43.300;0.394;2023-07-22T10:23:14;100015.09;;;23.91;nan
17311;BME280;8773;43.300;0.394;2023-07-22T10:25:45;100005.63;;;24.06;nan
17311;BME280;8773;43.300;0.394;2023-07-22T10:28:15;100009.41;;;24.80;nan
17311;BME280;8773;43.300;0.394;2023-07-22T10:30:44;100006.13;;;25.68;nan
17311;BME280;8773;43.300;0.394;2023-07-22T10:33:12;99996.13;;;26.46;nan
17311;BME280;8773;43.300;0.394;2023-07-22T10:35:41;100004.13;;;26.74;nan
17311;BME280;8773;43.300;0.394;2023-07-22T10:38:11;99991.78;;;26.50;nan
17311;BME280;8773;43.300;0.394;2023-07-22T10:40:46;100004.00;;;27.08;nan
17311;BME280;8773;43.300;0.394;2023-07-22T10:43:17;99995.78;;;27.08;nan
17311;BME280;8773;43.300;0.394;2023-07-22T10:45:50;99997.84;;;27.22;nan
17311;BME280;8773;43.300;0.394;2023-07-22T10:48:18;99995.31;;;27.75;nan
17311;BME280;8773;43.300;0.394;2023-07-22T10:50:47;99985.91;;;27.66;nan
17311;BME280;8773;43.300;0.394;2023-07-22T10:53:20;99989.38;;;26.97;nan
17311;BME280;8773;43.300;0.394;2023-07-22T10:56:11;99979.94;;;26.27;nan
17311;BME280;8773;43.300;0.394;2023-07-22T10:59:00;99984.25;;;26.40;nan
17311;BME280;8773;43.300;0.394;2023-07-22T11:01:33;99987.16;;;25.62;nan
17311;BME280;8773;43.300;0.394;2023-07-22T11:04:22;99983.00;;;26.09;nan
17311;BME280;8773;43.300;0.394;2023-07-22T11:06:54;99970.94;;;27.19;nan
17311;BME280;8773;43.300;0.394;2023-07-22T11:09:38;99972.78;;;27.14;nan
17311;BME280;8773;43.300;0.394;2023-07-22T11:12:12;99969.69;;;26.35;nan
17311;BME280;8773;43.300;0.394;2023-07-22T11:14:46;99957.34;;;26.54;nan
17311;BME280;8773;43.300;0.394;2023-07-22T11:17:15;99960.69;;;24.88;nan
17311;BME280;8773;43.300;0.394;2023-07-22T11:19:43;99958.44;;;25.76;nan
17311;BME280;8773;43.300;0.394;2023-07-22T11:22:11;99957.56;;;25.92;nan
17311;BME280;8773;43.300;0.394;2023-07-22T11:24:39;99959.13;;;26.43;nan
17311;BME280;8773;43.300;0.394;2023-07-22T11:27:07;99952.25;;;26.63;nan
17311;BME280;8773;43.300;0.394;2023-07-22T11:29:36;99956.03;;;26.83;nan
17311;BME280;8773;43.300;0.394;2023-07-22T11:32:06;99951.19;;;25.53;nan
17311;BME280;8773;43.300;0.394;2023-07-22T11:34:34;99954.91;;;25.47;nan
17311;BME280;8773;43.300;0.394;2023-07-22T11:37:02;99943.41;;;26.17;nan
17311;BME280;8773;43.300;0.394;2023-07-22T11:39:31;99946.91;;;26.12;nan
17311;BME280;8773;43.300;0.394;2023-07-22T11:42:00;99947.19;;;26.33;nan
17311;BME280;8773;43.300;0.394;2023-07-22T11:44:28;99942.50;;;26.50;nan
17311;BME280;8773;43.300;0.394;2023-07-22T11:46:57;99945.81;;;26.79;nan
17311;BME280;8773;43.300;0.394;2023-07-22T11:49:28;99936.91;;;26.88;nan
17311;BME280;8773;43.300;0.394;2023-07-22T11:51:57;99935.97;;;27.32;nan
17311;BME280;8773;43.300;0.394;2023-07-22T11:54:26;99930.25;;;27.38;nan
17311;BME280;8773;43.300;0.394;2023-07-22T11:56:54;99925.50;;;27.55;nan
17311;BME280;8773;43.300;0.394;2023-07-22T11:59:35;99938.19;;;26.15;nan
17311;BME280;8773;43.300;0.394;2023-07-22T12:02:04;99937.97;;;26.61;nan
17311;BME280;8773;43.300;0.394;2023-07-22T12:04:33;99925.16;;;26.22;nan
17311;BME280;8773;43.300;0.394;2023-07-22T12:07:01;99933.19;;;25.90;nan
17311;BME280;8773;43.300;0.394;2023-07-22T12:09:29;99923.69;;;25.76;nan
17311;BME280;8773;43.300;0.394;2023-07-22T12:11:57;99920.66;;;26.55;nan
17311;BME280;8773;43.300;0.394;2023-07-22T12:14:33;99919.88;;;26.16;nan
17311;BME280;8773;43.300;0.394;2023-07-22T12:17:01;99917.47;;;26.63;nan
17311;BME280;8773;43.300;0.394;2023-07-22T12:19:29;99917.78;;;26.45;nan
17311;BME280;8773;43.300;0.394;2023-07-22T12:21:58;99919.41;;;26.02;nan
17311;BME280;8773;43.300;0.394;2023-07-22T12:24:26;99923.00;;;26.24;nan
17311;BME280;8773;43.300;0.394;2023-07-22T12:26:54;99913.22;;;26.77;nan
17311;BME280;8773;43.300;0.394;2023-07-22T12:29:22;99912.69;;;26.80;nan
17311;BME280;8773;43.300;0.394;2023-07-22T12:31:50;99916.97;;;26.93;nan
17311;BME280;8773;43.300;0.394;2023-07-22T12:34:17;99916.19;;;27.30;nan
17311;BME280;8773;43.300;0.394;2023-07-22T12:36:45;99902.88;;;27.43;nan
17311;BME280;8773;43.300;0.394;2023-07-22T12:39:14;99903.97;;;27.79;nan
17311;BME280;8773;43.300;0.394;2023-07-22T12:41:42;99894.19;;;27.94;nan
17311;BME280;8773;43.300;0.394;2023-07-22T12:44:09;99903.38;;;27.35;nan
17311;BME280;8773;43.300;0.394;2023-07-22T12:46:37;99894.19;;;27.51;nan
17311;BME280;8773;43.300;0.394;2023-07-22T12:49:05;99897.06;;;26.10;nan
17311;BME280;8773;43.300;0.394;2023-07-22T12:51:33;99892.41;;;25.89;nan
17311;BME280;8773;43.300;0.394;2023-07-22T12:54:00;99899.31;;;26.13;nan
17311;BME280;8773;43.300;0.394;2023-07-22T12:56:29;99898.63;;;26.72;nan
17311;BME280;8773;43.300;0.394;2023-07-22T12:58:57;99897.31;;;27.01;nan
17311;BME280;8773;43.300;0.394;2023-07-22T13:01:25;99899.56;;;26.82;nan
17311;BME280;8773;43.300;0.394;2023-07-22T13:03:53;99899.91;;;26.37;nan
17311;BME280;8773;43.300;0.394;2023-07-22T13:06:21;99889.75;;;26.16;nan
17311;BME280;8773;43.300;0.394;2023-07-22T13:08:49;99885.53;;;26.30;nan
17311;BME280;8773;43.300;0.394;2023-07-22T13:11:16;99887.56;;;25.57;nan
17311;BME280;8773;43.300;0.394;2023-07-22T13:13:45;99876.19;;;26.48;nan
17311;BME280;8773;43.300;0.394;2023-07-22T13:16:13;99880.78;;;27.23;nan
17311;BME280;8773;43.300;0.394;2023-07-22T13:18:41;99861.75;;;27.43;nan
17311;BME280;8773;43.300;0.394;2023-07-22T13:21:09;99875.25;;;27.18;nan
17311;BME280;8773;43.300;0.394;2023-07-22T13:23:36;99876.78;;;26.50;nan
17311;BME280;8773;43.300;0.394;2023-07-22T13:26:04;99873.63;;;27.22;nan
17311;BME280;8773;43.300;0.394;2023-07-22T13:28:32;99868.34;;;27.47;nan
17311;BME280;8773;43.300;0.394;2023-07-22T13:31:01;99874.06;;;27.78;nan
17311;BME280;8773;43.300;0.394;2023-07-22T13:33:29;99863.13;;;27.88;nan
17311;BME280;8773;43.300;0.394;2023-07-22T13:35:56;99857.75;;;27.61;nan
17311;BME280;8773;43.300;0.394;2023-07-22T13:38:24;99867.50;;;27.84;nan
17311;BME280;8773;43.300;0.394;2023-07-22T13:40:52;99871.81;;;26.47;nan